sensor_id;sensor_type;location;lat;lon;timestamp;P1;durP1;ratioP1;P2;durP2;ratioP2
840;SDS011;406;48.566;13.450;2023-03-23T00:01:02;11.70;;;7.10;;
840;SDS011;406;48.566;13.450;2023-03-23T00:03:29;8.60;;;7.33;;
840;SDS011;406;48.566;13.450;2023-03-23T00:05:57;9.93;;;7.60;;
840;SDS011;406;48.566;13.450;2023-03-23T00:08:36;7.83;;;6.50;;
840;SDS011;406;48.566;13.450;2023-03-23T00:11:05;10.33;;;8.77;;
840;SDS011;406;48.566;13.450;2023-03-23T00:13:32;8.50;;;7.13;;
840;SDS011;406;48.566;13.450;2023-03-23T00:15:58;12.70;;;8.67;;
840;SDS011;406;48.566;13.450;2023-03-23T00:18:24;9.87;;;7.90;;
840;SDS011;406;48.566;13.450;2023-03-23T00:20:50;9.30;;;6.60;;
840;SDS011;406;48.566;13.450;2023-03-23T00:23:21;9.73;;;7.70;;
840;SDS011;406;48.566;13.450;2023-03-23T00:25:52;9.83;;;7.70;;
840;SDS011;406;48.566;13.450;2023-03-23T00:28:21;8.83;;;7.43;;
840;SDS011;406;48.566;13.450;2023-03-23T00:30:56;9.53;;;7.53;;
840;SDS011;406;48.566;13.450;2023-03-23T00:33:23;13.10;;;7.90;;
840;SDS011;406;48.566;13.450;2023-03-23T00:35:51;9.50;;;7.30;;
840;SDS011;406;48.566;13.450;2023-03-23T00:38:20;11.83;;;8.77;;
840;SDS011;406;48.566;13.450;2023-03-23T00:40:49;10.53;;;8.00;;
840;SDS011;406;48.566;13.450;2023-03-23T00:43:15;11.43;;;7.67;;
840;SDS011;406;48.566;13.450;2023-03-23T00:45:42;12.80;;;7.13;;
840;SDS011;406;48.566;13.450;2023-03-23T00:48:10;16.17;;;8.50;;
840;SDS011;406;48.566;13.450;2023-03-23T00:50:38;8.60;;;7.20;;
840;SDS011;406;48.566;13.450;2023-03-23T00:53:04;9.27;;;7.90;;
840;SDS011;406;48.566;13.450;2023-03-23T00:55:29;11.10;;;7.00;;
840;SDS011;406;48.566;13.450;2023-03-23T00:57:55;8.50;;;7.40;;
840;SDS011;406;48.566;13.450;2023-03-23T01:00:21;14.00;;;8.73;;
840;SDS011;406;48.566;13.450;2023-03-23T01:02:47;9.33;;;7.57;;
840;SDS011;406;48.566;13.450;2023-03-23T01:05:13;10.53;;;7.50;;
840;SDS011;406;48.566;13.450;2023-03-23T01:07:41;9.33;;;7.83;;
840;SDS011;406;48.566;13.450;2023-03-23T01:10:09;8.90;;;7.10;;
840;SDS011;406;48.566;13.450;2023-03-23T01:12:38;11.20;;;7.03;;
840;SDS011;406;48.566;13.450;2023-03-23T01:15:05;7.70;;;6.87;;
840;SDS011;406;48.566;13.450;2023-03-23T01:17:31;9.00;;;6.40;;
840;SDS011;406;48.566;13.450;2023-03-23T01:19:56;9.43;;;8.23;;
840;SDS011;406;48.566;13.450;2023-03-23T01:22:22;10.43;;;7.30;;
840;SDS011;406;48.566;13.450;2023-03-23T01:24:47;9.50;;;7.87;;
840;SDS011;406;48.566;13.450;2023-03-23T01:27:13;8.23;;;6.93;;
840;SDS011;406;48.566;13.450;2023-03-23T01:29:39;11.63;;;7.60;;
840;SDS011;406;48.566;13.450;2023-03-23T01:32:04;10.47;;;8.13;;
840;SDS011;406;48.566;13.450;2023-03-23T01:34:30;9.80;;;7.80;;
840;SDS011;406;48.566;13.450;2023-03-23T01:36:56;12.23;;;8.77;;
840;SDS011;406;48.566;13.450;2023-03-23T01:39:22;10.10;;;7.60;;
840;SDS011;406;48.566;13.450;2023-03-23T01:41:48;8.80;;;7.93;;
840;SDS011;406;48.566;13.450;2023-03-23T01:46:52;7.93;;;6.80;;
840;SDS011;406;48.566;13.450;2023-03-23T01:49:24;10.73;;;7.97;;
840;SDS011;406;48.566;13.450;2023-03-23T01:52:06;11.47;;;8.00;;
840;SDS011;406;48.566;13.450;2023-03-23T01:54:35;9.60;;;6.37;;
840;SDS011;406;48.566;13.450;2023-03-23T01:57:06;12.93;;;7.93;;
840;SDS011;406;48.566;13.450;2023-03-23T01:59:36;8.60;;;7.30;;
840;SDS011;406;48.566;13.450;2023-03-23T02:02:19;13.33;;;8.20;;
840;SDS011;406;48.566;13.450;2023-03-23T02:04:46;15.93;;;8.73;;
840;SDS011;406;48.566;13.450;2023-03-23T02:07:12;11.20;;;8.70;;
840;SDS011;406;48.566;13.450;2023-03-23T02:09:38;9.80;;;8.07;;
840;SDS011;406;48.566;13.450;2023-03-23T02:12:04;10.00;;;8.17;;
840;SDS011;406;48.566;13.450;2023-03-23T02:14:30;11.20;;;8.47;;
840;SDS011;406;48.566;13.450;2023-03-23T02:17:16;12.50;;;8.90;;
840;SDS011;406;48.566;13.450;2023-03-23T02:25:58;10.23;;;8.27;;
840;SDS011;406;48.566;13.450;2023-03-23T02:31:47;10.27;;;7.90;;
840;SDS011;406;48.566;13.450;2023-03-23T02:34:51;11.20;;;8.30;;
840;SDS011;406;48.566;13.450;2023-03-23T02:37:27;15.07;;;9.03;;
840;SDS011;406;48.566;13.450;2023-03-23T02:40:04;9.37;;;8.30;;
840;SDS011;406;48.566;13.450;2023-03-23T02:42:39;13.00;;;9.00;;
840;SDS011;406;48.566;13.450;2023-03-23T02:45:07;12.63;;;8.07;;
840;SDS011;406;48.566;13.450;2023-03-23T02:47:34;10.90;;;7.97;;
840;SDS011;406;48.566;13.450;2023-03-23T02:50:00;12.67;;;8.43;;
840;SDS011;406;48.566;13.450;2023-03-23T02:52:30;9.70;;;8.00;;
840;SDS011;406;48.566;13.450;2023-03-23T02:54:57;9.63;;;7.70;;
840;SDS011;406;48.566;13.450;2023-03-23T02:57:24;8.90;;;8.07;;
840;SDS011;406;48.566;13.450;2023-03-23T02:59:53;9.80;;;8.00;;
840;SDS011;406;48.566;13.450;2023-03-23T03:02:21;12.13;;;8.43;;
840;SDS011;406;48.566;13.450;2023-03-23T03:04:53;10.20;;;7.93;;
840;SDS011;406;48.566;13.450;2023-03-23T03:21:20;13.13;;;8.60;;
840;SDS011;406;48.566;13.450;2023-03-23T03:23:52;9.20;;;7.93;;
840;SDS011;406;48.566;13.450;2023-03-23T03:26:20;11.83;;;8.63;;
840;SDS011;406;48.566;13.450;2023-03-23T03:28:51;10.70;;;8.13;;
840;SDS011;406;48.566;13.450;2023-03-23T03:31:24;11.40;;;7.60;;
840;SDS011;406;48.566;13.450;2023-03-23T03:33:53;11.43;;;8.10;;
840;SDS011;406;48.566;13.450;2023-03-23T03:36:20;9.30;;;7.67;;
840;SDS011;406;48.566;13.450;2023-03-23T03:38:48;9.60;;;8.23;;
840;SDS011;406;48.566;13.450;2023-03-23T03:41:15;9.27;;;8.00;;
840;SDS011;406;48.566;13.450;2023-03-23T03:43:40;12.03;;;8.27;;
840;SDS011;406;48.566;13.450;2023-03-23T03:46:06;11.60;;;8.47;;
840;SDS011;406;48.566;13.450;2023-03-23T03:48:32;11.23;;;8.50;;
840;SDS011;406;48.566;13.450;2023-03-23T03:50:57;7.80;;;7.00;;
840;SDS011;406;48.566;13.450;2023-03-23T03:53:27;11.27;;;7.47;;
840;SDS011;406;48.566;13.450;2023-03-23T03:55:53;10.63;;;8.83;;
840;SDS011;406;48.566;13.450;2023-03-23T03:58:22;9.17;;;8.27;;
840;SDS011;406;48.566;13.450;2023-03-23T04:00:50;11.63;;;7.83;;
840;SDS011;406;48.566;13.450;2023-03-23T04:03:20;9.97;;;8.70;;
840;SDS011;406;48.566;13.450;2023-03-23T04:06:05;11.30;;;8.80;;
840;SDS011;406;48.566;13.450;2023-03-23T04:08:32;13.67;;;9.03;;
840;SDS011;406;48.566;13.450;2023-03-23T04:10:58;10.83;;;8.37;;
840;SDS011;406;48.566;13.450;2023-03-23T04:13:24;12.73;;;9.10;;
840;SDS011;406;48.566;13.450;2023-03-23T04:15:58;11.50;;;9.10;;
840;SDS011;406;48.566;13.450;2023-03-23T04:18:24;11.80;;;9.40;;
840;SDS011;406;48.566;13.450;2023-03-23T04:20:50;12.93;;;9.47;;
840;SDS011;406;48.566;13.450;2023-03-23T04:23:18;13.20;;;9.13;;
840;SDS011;406;48.566;13.450;2023-03-23T04:25:46;11.50;;;8.90;;
840;SDS011;406;48.566;13.450;2023-03-23T04:28:13;9.70;;;8.60;;
840;SDS011;406;48.566;13.450;2023-03-23T04:30:51;12.50;;;10.00;;
840;SDS011;406;48.566;13.450;2023-03-23T04:33:23;11.23;;;8.40;;
840;SDS011;406;48.566;13.450;2023-03-23T04:35:52;10.87;;;9.00;;
840;SDS011;406;48.566;13.450;2023-03-23T04:38:30;11.00;;;7.87;;
840;SDS011;406;48.566;13.450;2023-03-23T04:41:01;11.83;;;8.20;;
840;SDS011;406;48.566;13.450;2023-03-23T04:43:39;13.37;;;10.27;;
840;SDS011;406;48.566;13.450;2023-03-23T04:46:28;10.43;;;8.40;;
840;SDS011;406;48.566;13.450;2023-03-23T04:48:58;11.53;;;9.60;;
840;SDS011;406;48.566;13.450;2023-03-23T04:51:29;10.77;;;8.60;;
840;SDS011;406;48.566;13.450;2023-03-23T04:53:59;9.80;;;8.13;;
840;SDS011;406;48.566;13.450;2023-03-23T04:56:26;16.70;;;9.67;;
840;SDS011;406;48.566;13.450;2023-03-23T04:58:52;13.70;;;9.20;;
840;SDS011;406;48.566;13.450;2023-03-23T05:01:30;10.37;;;9.23;;
840;SDS011;406;48.566;13.450;2023-03-23T05:04:09;11.40;;;8.47;;
840;SDS011;406;48.566;13.450;2023-03-23T05:06:35;11.60;;;9.63;;
840;SDS011;406;48.566;13.450;2023-03-23T05:09:10;9.57;;;8.57;;
840;SDS011;406;48.566;13.450;2023-03-23T05:11:35;10.47;;;9.03;;
840;SDS011;406;48.566;13.450;2023-03-23T05:14:03;13.63;;;9.07;;
840;SDS011;406;48.566;13.450;2023-03-23T05:16:28;16.27;;;9.43;;
840;SDS011;406;48.566;13.450;2023-03-23T05:18:55;14.90;;;9.20;;
840;SDS011;406;48.566;13.450;2023-03-23T05:21:23;13.40;;;9.90;;
840;SDS011;406;48.566;13.450;2023-03-23T05:23:52;11.10;;;8.80;;
840;SDS011;406;48.566;13.450;2023-03-23T05:26:21;14.43;;;9.67;;
840;SDS011;406;48.566;13.450;2023-03-23T05:28:50;11.93;;;8.83;;
840;SDS011;406;48.566;13.450;2023-03-23T05:31:22;14.57;;;9.70;;
840;SDS011;406;48.566;13.450;2023-03-23T05:33:49;14.17;;;9.40;;
840;SDS011;406;48.566;13.450;2023-03-23T05:36:20;16.00;;;10.17;;
840;SDS011;406;48.566;13.450;2023-03-23T05:39:13;16.03;;;9.90;;
840;SDS011;406;48.566;13.450;2023-03-23T05:42:14;13.07;;;9.87;;
840;SDS011;406;48.566;13.450;2023-03-23T05:44:49;15.13;;;10.03;;
840;SDS011;406;48.566;13.450;2023-03-23T05:47:15;12.70;;;10.30;;
840;SDS011;406;48.566;13.450;2023-03-23T05:49:47;14.10;;;10.70;;
840;SDS011;406;48.566;13.450;2023-03-23T05:52:16;13.80;;;9.77;;
840;SDS011;406;48.566;13.450;2023-03-23T05:54:41;12.77;;;9.80;;
840;SDS011;406;48.566;13.450;2023-03-23T05:57:07;13.80;;;10.00;;
840;SDS011;406;48.566;13.450;2023-03-23T05:59:40;12.77;;;10.53;;
840;SDS011;406;48.566;13.450;2023-03-23T06:02:11;13.60;;;9.57;;
840;SDS011;406;48.566;13.450;2023-03-23T06:04:39;12.90;;;9.40;;
840;SDS011;406;48.566;13.450;2023-03-23T06:07:14;11.20;;;10.00;;
840;SDS011;406;48.566;13.450;2023-03-23T06:09:45;12.43;;;8.43;;
840;SDS011;406;48.566;13.450;2023-03-23T06:12:33;13.40;;;9.10;;
840;SDS011;406;48.566;13.450;2023-03-23T06:15:13;15.30;;;10.40;;
840;SDS011;406;48.566;13.450;2023-03-23T06:18:02;12.40;;;9.40;;
840;SDS011;406;48.566;13.450;2023-03-23T06:20:36;9.93;;;8.50;;
840;SDS011;406;48.566;13.450;2023-03-23T06:23:15;12.63;;;8.43;;
840;SDS011;406;48.566;13.450;2023-03-23T06:25:41;11.03;;;9.20;;
840;SDS011;406;48.566;13.450;2023-03-23T06:28:08;15.20;;;9.10;;
840;SDS011;406;48.566;13.450;2023-03-23T06:30:40;10.87;;;8.20;;
840;SDS011;406;48.566;13.450;2023-03-23T06:33:05;11.73;;;8.87;;
840;SDS011;406;48.566;13.450;2023-03-23T06:35:54;12.97;;;10.07;;
840;SDS011;406;48.566;13.450;2023-03-23T06:38:39;11.23;;;9.40;;
840;SDS011;406;48.566;13.450;2023-03-23T06:41:05;11.83;;;8.77;;
840;SDS011;406;48.566;13.450;2023-03-23T06:43:31;11.80;;;8.43;;
840;SDS011;406;48.566;13.450;2023-03-23T06:46:10;12.17;;;9.27;;
840;SDS011;406;48.566;13.450;2023-03-23T06:48:35;10.73;;;9.10;;
840;SDS011;406;48.566;13.450;2023-03-23T06:51:03;11.90;;;8.70;;
840;SDS011;406;48.566;13.450;2023-03-23T06:53:30;10.83;;;9.17;;
840;SDS011;406;48.566;13.450;2023-03-23T06:55:57;10.83;;;7.87;;
840;SDS011;406;48.566;13.450;2023-03-23T06:58:22;13.03;;;8.20;;
840;SDS011;406;48.566;13.450;2023-03-23T07:00:53;9.73;;;7.50;;
840;SDS011;406;48.566;13.450;2023-03-23T07:03:25;9.63;;;7.07;;
840;SDS011;406;48.566;13.450;2023-03-23T07:05:53;10.60;;;6.77;;
840;SDS011;406;48.566;13.450;2023-03-23T07:08:21;8.63;;;7.73;;
840;SDS011;406;48.566;13.450;2023-03-23T07:10:52;14.13;;;7.67;;
840;SDS011;406;48.566;13.450;2023-03-23T07:13:22;9.60;;;8.30;;
840;SDS011;406;48.566;13.450;2023-03-23T07:15:52;11.10;;;7.17;;
840;SDS011;406;48.566;13.450;2023-03-23T07:18:18;10.03;;;7.20;;
840;SDS011;406;48.566;13.450;2023-03-23T07:20:48;8.60;;;7.10;;
840;SDS011;406;48.566;13.450;2023-03-23T07:23:15;9.70;;;7.30;;
840;SDS011;406;48.566;13.450;2023-03-23T07:25:45;10.43;;;7.63;;
840;SDS011;406;48.566;13.450;2023-03-23T07:28:17;8.23;;;7.30;;
840;SDS011;406;48.566;13.450;2023-03-23T07:30:43;8.93;;;7.73;;
840;SDS011;406;48.566;13.450;2023-03-23T07:33:09;10.40;;;8.07;;
840;SDS011;406;48.566;13.450;2023-03-23T07:35:36;9.80;;;7.73;;
840;SDS011;406;48.566;13.450;2023-03-23T07:38:08;10.90;;;7.03;;
840;SDS011;406;48.566;13.450;2023-03-23T07:40:34;9.57;;;8.10;;
840;SDS011;406;48.566;13.450;2023-03-23T07:43:06;9.60;;;8.13;;
840;SDS011;406;48.566;13.450;2023-03-23T07:45:46;8.17;;;7.00;;
840;SDS011;406;48.566;13.450;2023-03-23T07:48:13;11.80;;;8.00;;
840;SDS011;406;48.566;13.450;2023-03-23T07:50:39;9.43;;;8.37;;
840;SDS011;406;48.566;13.450;2023-03-23T07:53:08;11.53;;;8.90;;
840;SDS011;406;48.566;13.450;2023-03-23T07:55:35;10.00;;;8.47;;
840;SDS011;406;48.566;13.450;2023-03-23T07:58:09;10.00;;;8.93;;
840;SDS011;406;48.566;13.450;2023-03-23T08:00:35;10.10;;;8.80;;
840;SDS011;406;48.566;13.450;2023-03-23T08:03:04;11.00;;;9.17;;
840;SDS011;406;48.566;13.450;2023-03-23T08:05:53;10.30;;;8.70;;
840;SDS011;406;48.566;13.450;2023-03-23T08:08:27;9.80;;;8.80;;
840;SDS011;406;48.566;13.450;2023-03-23T08:10:55;9.97;;;8.00;;
840;SDS011;406;48.566;13.450;2023-03-23T08:13:41;9.53;;;7.83;;
840;SDS011;406;48.566;13.450;2023-03-23T08:16:35;9.17;;;8.27;;
840;SDS011;406;48.566;13.450;2023-03-23T08:19:39;7.97;;;7.17;;
840;SDS011;406;48.566;13.450;2023-03-23T08:22:23;10.67;;;9.13;;
840;SDS011;406;48.566;13.450;2023-03-23T08:25:12;11.13;;;8.03;;
840;SDS011;406;48.566;13.450;2023-03-23T08:27:57;7.87;;;6.90;;
840;SDS011;406;48.566;13.450;2023-03-23T08:30:41;10.60;;;7.70;;
840;SDS011;406;48.566;13.450;2023-03-23T08:33:17;9.73;;;7.50;;
840;SDS011;406;48.566;13.450;2023-03-23T08:36:06;6.97;;;6.37;;
840;SDS011;406;48.566;13.450;2023-03-23T08:38:50;8.90;;;6.67;;
840;SDS011;406;48.566;13.450;2023-03-23T08:41:31;8.90;;;7.43;;
840;SDS011;406;48.566;13.450;2023-03-23T08:44:16;7.83;;;7.07;;
840;SDS011;406;48.566;13.450;2023-03-23T08:47:10;7.00;;;6.30;;
840;SDS011;406;48.566;13.450;2023-03-23T08:50:06;7.30;;;6.60;;
840;SDS011;406;48.566;13.450;2023-03-23T08:53:04;7.90;;;7.10;;
840;SDS011;406;48.566;13.450;2023-03-23T08:55:46;9.10;;;8.20;;
840;SDS011;406;48.566;13.450;2023-03-23T08:58:42;8.43;;;7.53;;
840;SDS011;406;48.566;13.450;2023-03-23T09:01:14;8.50;;;7.70;;
840;SDS011;406;48.566;13.450;2023-03-23T09:03:43;8.13;;;7.00;;
840;SDS011;406;48.566;13.450;2023-03-23T09:06:27;8.43;;;7.60;;
840;SDS011;406;48.566;13.450;2023-03-23T09:08:53;13.30;;;8.77;;
840;SDS011;406;48.566;13.450;2023-03-23T09:11:20;8.00;;;7.20;;
840;SDS011;406;48.566;13.450;2023-03-23T09:13:46;7.90;;;7.10;;
840;SDS011;406;48.566;13.450;2023-03-23T09:16:12;10.67;;;8.37;;
840;SDS011;406;48.566;13.450;2023-03-23T09:18:37;9.63;;;7.07;;
840;SDS011;406;48.566;13.450;2023-03-23T09:21:03;7.50;;;6.60;;
840;SDS011;406;48.566;13.450;2023-03-23T09:23:29;8.47;;;7.20;;
840;SDS011;406;48.566;13.450;2023-03-23T09:25:55;7.60;;;6.30;;
840;SDS011;406;48.566;13.450;2023-03-23T09:28:21;10.13;;;7.17;;
840;SDS011;406;48.566;13.450;2023-03-23T09:30:46;7.17;;;6.00;;
840;SDS011;406;48.566;13.450;2023-03-23T09:33:12;7.30;;;5.90;;
840;SDS011;406;48.566;13.450;2023-03-23T09:35:39;8.03;;;6.47;;
840;SDS011;406;48.566;13.450;2023-03-23T09:38:06;8.10;;;6.80;;
840;SDS011;406;48.566;13.450;2023-03-23T09:40:39;7.13;;;6.43;;
840;SDS011;406;48.566;13.450;2023-03-23T09:48:55;7.17;;;6.40;;
840;SDS011;406;48.566;13.450;2023-03-23T09:54:29;7.20;;;6.50;;
840;SDS011;406;48.566;13.450;2023-03-23T09:56:58;9.43;;;6.53;;
840;SDS011;406;48.566;13.450;2023-03-23T09:59:29;10.63;;;6.00;;
840;SDS011;406;48.566;13.450;2023-03-23T10:01:57;7.93;;;6.50;;
840;SDS011;406;48.566;13.450;2023-03-23T10:04:36;6.17;;;5.27;;
840;SDS011;406;48.566;13.450;2023-03-23T10:07:14;8.60;;;7.10;;
840;SDS011;406;48.566;13.450;2023-03-23T10:09:59;8.77;;;6.40;;
840;SDS011;406;48.566;13.450;2023-03-23T10:15:18;10.17;;;7.80;;
840;SDS011;406;48.566;13.450;2023-03-23T10:17:54;7.10;;;6.13;;
840;SDS011;406;48.566;13.450;2023-03-23T10:20:29;7.30;;;6.30;;
840;SDS011;406;48.566;13.450;2023-03-23T10:23:13;9.90;;;6.77;;
840;SDS011;406;48.566;13.450;2023-03-23T10:25:53;8.13;;;6.67;;
840;SDS011;406;48.566;13.450;2023-03-23T10:28:34;8.43;;;6.20;;
840;SDS011;406;48.566;13.450;2023-03-23T10:31:00;8.60;;;5.90;;
840;SDS011;406;48.566;13.450;2023-03-23T10:33:29;8.63;;;6.67;;
840;SDS011;406;48.566;13.450;2023-03-23T10:36:13;8.00;;;6.60;;
840;SDS011;406;48.566;13.450;2023-03-23T10:38:48;7.20;;;5.07;;
840;SDS011;406;48.566;13.450;2023-03-23T10:41:16;8.13;;;6.57;;
840;SDS011;406;48.566;13.450;2023-03-23T10:43:43;8.27;;;6.50;;
840;SDS011;406;48.566;13.450;2023-03-23T10:48:56;7.87;;;6.20;;
840;SDS011;406;48.566;13.450;2023-03-23T10:51:24;7.67;;;6.27;;
840;SDS011;406;48.566;13.450;2023-03-23T10:53:58;7.93;;;5.70;;
840;SDS011;406;48.566;13.450;2023-03-23T10:59:13;6.07;;;5.47;;
840;SDS011;406;48.566;13.450;2023-03-23T11:01:42;7.50;;;5.30;;
840;SDS011;406;48.566;13.450;2023-03-23T11:04:13;5.70;;;4.90;;
840;SDS011;406;48.566;13.450;2023-03-23T11:06:42;6.17;;;5.10;;
840;SDS011;406;48.566;13.450;2023-03-23T11:11:40;5.47;;;4.90;;
840;SDS011;406;48.566;13.450;2023-03-23T11:16:45;5.27;;;3.73;;
840;SDS011;406;48.566;13.450;2023-03-23T11:19:26;6.20;;;5.17;;
840;SDS011;406;48.566;13.450;2023-03-23T11:21:55;5.20;;;3.60;;
840;SDS011;406;48.566;13.450;2023-03-23T11:24:25;6.30;;;3.80;;
840;SDS011;406;48.566;13.450;2023-03-23T11:26:52;3.83;;;2.90;;
840;SDS011;406;48.566;13.450;2023-03-23T11:29:19;6.17;;;3.70;;
840;SDS011;406;48.566;13.450;2023-03-23T11:31:48;6.67;;;3.60;;
840;SDS011;406;48.566;13.450;2023-03-23T11:34:21;7.17;;;3.40;;
840;SDS011;406;48.566;13.450;2023-03-23T11:41:50;6.60;;;3.97;;
840;SDS011;406;48.566;13.450;2023-03-23T11:44:15;4.83;;;3.60;;
840;SDS011;406;48.566;13.450;2023-03-23T11:46:44;8.10;;;4.07;;
840;SDS011;406;48.566;13.450;2023-03-23T11:49:28;4.90;;;3.37;;
840;SDS011;406;48.566;13.450;2023-03-23T11:52:01;7.17;;;3.60;;
840;SDS011;406;48.566;13.450;2023-03-23T11:54:34;5.53;;;3.67;;
840;SDS011;406;48.566;13.450;2023-03-23T11:57:06;5.63;;;3.30;;
840;SDS011;406;48.566;13.450;2023-03-23T11:59:33;6.63;;;3.03;;
840;SDS011;406;48.566;13.450;2023-03-23T12:07:47;3.23;;;1.90;;
840;SDS011;406;48.566;13.450;2023-03-23T12:12:59;1.87;;;1.43;;
840;SDS011;406;48.566;13.450;2023-03-23T12:23:23;4.07;;;2.30;;
840;SDS011;406;48.566;13.450;2023-03-23T12:28:45;5.17;;;2.37;;
840;SDS011;406;48.566;13.450;2023-03-23T12:37:41;3.13;;;2.07;;
840;SDS011;406;48.566;13.450;2023-03-23T12:42:56;5.03;;;2.60;;
840;SDS011;406;48.566;13.450;2023-03-23T12:48:28;3.07;;;1.93;;
840;SDS011;406;48.566;13.450;2023-03-23T12:53:40;4.23;;;2.13;;
840;SDS011;406;48.566;13.450;2023-03-23T12:58:43;2.33;;;1.80;;
840;SDS011;406;48.566;13.450;2023-03-23T13:01:15;3.00;;;2.10;;
840;SDS011;406;48.566;13.450;2023-03-23T13:06:37;2.87;;;2.23;;
840;SDS011;406;48.566;13.450;2023-03-23T13:09:07;2.87;;;2.20;;
840;SDS011;406;48.566;13.450;2023-03-23T13:11:37;3.57;;;2.57;;
840;SDS011;406;48.566;13.450;2023-03-23T13:14:21;4.13;;;2.00;;
840;SDS011;406;48.566;13.450;2023-03-23T13:16:54;1.70;;;1.50;;
840;SDS011;406;48.566;13.450;2023-03-23T13:19:26;3.50;;;2.33;;
840;SDS011;406;48.566;13.450;2023-03-23T13:22:04;2.77;;;2.30;;
840;SDS011;406;48.566;13.450;2023-03-23T13:24:33;6.20;;;2.60;;
840;SDS011;406;48.566;13.450;2023-03-23T13:27:04;3.13;;;2.40;;
840;SDS011;406;48.566;13.450;2023-03-23T13:29:30;2.10;;;1.90;;
840;SDS011;406;48.566;13.450;2023-03-23T13:32:05;3.10;;;1.87;;
840;SDS011;406;48.566;13.450;2023-03-23T13:34:35;3.63;;;2.07;;
840;SDS011;406;48.566;13.450;2023-03-23T13:37:02;2.20;;;1.87;;
840;SDS011;406;48.566;13.450;2023-03-23T13:39:37;2.63;;;1.80;;
840;SDS011;406;48.566;13.450;2023-03-23T13:49:59;3.23;;;1.90;;
840;SDS011;406;48.566;13.450;2023-03-23T13:55:17;4.60;;;1.70;;
840;SDS011;406;48.566;13.450;2023-03-23T14:05:37;3.70;;;2.60;;
840;SDS011;406;48.566;13.450;2023-03-23T14:10:43;3.77;;;2.27;;
840;SDS011;406;48.566;13.450;2023-03-23T14:13:18;3.10;;;2.43;;
840;SDS011;406;48.566;13.450;2023-03-23T14:16:00;2.70;;;2.30;;
840;SDS011;406;48.566;13.450;2023-03-23T14:18:32;3.40;;;2.30;;
840;SDS011;406;48.566;13.450;2023-03-23T14:21:03;4.80;;;2.80;;
840;SDS011;406;48.566;13.450;2023-03-23T14:23:30;5.40;;;3.20;;
840;SDS011;406;48.566;13.450;2023-03-23T14:26:02;3.40;;;2.33;;
840;SDS011;406;48.566;13.450;2023-03-23T14:28:36;4.27;;;2.70;;
840;SDS011;406;48.566;13.450;2023-03-23T14:31:03;4.37;;;2.60;;
840;SDS011;406;48.566;13.450;2023-03-23T14:33:29;4.23;;;2.10;;
840;SDS011;406;48.566;13.450;2023-03-23T14:35:56;3.60;;;2.60;;
840;SDS011;406;48.566;13.450;2023-03-23T14:38:23;3.57;;;2.60;;
840;SDS011;406;48.566;13.450;2023-03-23T14:40:53;6.70;;;2.50;;
840;SDS011;406;48.566;13.450;2023-03-23T14:43:19;4.20;;;2.63;;
840;SDS011;406;48.566;13.450;2023-03-23T14:45:57;5.17;;;3.00;;
840;SDS011;406;48.566;13.450;2023-03-23T14:48:25;4.60;;;2.77;;
840;SDS011;406;48.566;13.450;2023-03-23T14:50:52;2.50;;;2.30;;
840;SDS011;406;48.566;13.450;2023-03-23T14:53:22;2.67;;;2.47;;
840;SDS011;406;48.566;13.450;2023-03-23T14:55:49;2.73;;;1.87;;
840;SDS011;406;48.566;13.450;2023-03-23T14:58:17;3.50;;;2.50;;
840;SDS011;406;48.566;13.450;2023-03-23T15:00:55;3.77;;;2.50;;
840;SDS011;406;48.566;13.450;2023-03-23T15:03:27;4.40;;;2.60;;
840;SDS011;406;48.566;13.450;2023-03-23T15:05:54;4.83;;;2.93;;
840;SDS011;406;48.566;13.450;2023-03-23T15:08:23;3.13;;;2.67;;
840;SDS011;406;48.566;13.450;2023-03-23T15:13:50;3.00;;;1.50;;
840;SDS011;406;48.566;13.450;2023-03-23T15:16:20;1.70;;;1.40;;
840;SDS011;406;48.566;13.450;2023-03-23T15:18:49;2.50;;;1.70;;
840;SDS011;406;48.566;13.450;2023-03-23T15:21:32;1.90;;;1.40;;
840;SDS011;406;48.566;13.450;2023-03-23T15:24:02;2.13;;;1.40;;
840;SDS011;406;48.566;13.450;2023-03-23T15:26:33;3.27;;;1.27;;
840;SDS011;406;48.566;13.450;2023-03-23T15:31:43;2.73;;;2.00;;
840;SDS011;406;48.566;13.450;2023-03-23T15:37:04;2.90;;;1.70;;
840;SDS011;406;48.566;13.450;2023-03-23T15:39:40;1.80;;;1.43;;
840;SDS011;406;48.566;13.450;2023-03-23T15:42:05;4.23;;;2.27;;
840;SDS011;406;48.566;13.450;2023-03-23T15:44:32;2.70;;;1.97;;
840;SDS011;406;48.566;13.450;2023-03-23T15:47:12;3.33;;;1.93;;
840;SDS011;406;48.566;13.450;2023-03-23T15:49:40;4.80;;;1.83;;
840;SDS011;406;48.566;13.450;2023-03-23T15:52:10;3.23;;;1.80;;
840;SDS011;406;48.566;13.450;2023-03-23T15:54:37;2.17;;;1.60;;
840;SDS011;406;48.566;13.450;2023-03-23T15:57:03;2.67;;;1.50;;
840;SDS011;406;48.566;13.450;2023-03-23T15:59:28;2.50;;;1.70;;
840;SDS011;406;48.566;13.450;2023-03-23T16:01:55;3.00;;;2.03;;
840;SDS011;406;48.566;13.450;2023-03-23T16:04:22;2.80;;;1.77;;
840;SDS011;406;48.566;13.450;2023-03-23T16:06:49;2.10;;;1.43;;
840;SDS011;406;48.566;13.450;2023-03-23T16:09:21;6.00;;;1.60;;
840;SDS011;406;48.566;13.450;2023-03-23T16:11:47;2.80;;;2.00;;
840;SDS011;406;48.566;13.450;2023-03-23T16:14:14;2.00;;;1.60;;
840;SDS011;406;48.566;13.450;2023-03-23T16:16:41;3.00;;;2.13;;
840;SDS011;406;48.566;13.450;2023-03-23T16:19:14;3.67;;;1.93;;
840;SDS011;406;48.566;13.450;2023-03-23T16:21:41;3.30;;;1.40;;
840;SDS011;406;48.566;13.450;2023-03-23T16:24:08;2.33;;;2.00;;
840;SDS011;406;48.566;13.450;2023-03-23T16:26:35;4.57;;;2.00;;
840;SDS011;406;48.566;13.450;2023-03-23T16:29:07;5.77;;;2.20;;
840;SDS011;406;48.566;13.450;2023-03-23T16:31:49;3.37;;;1.70;;
840;SDS011;406;48.566;13.450;2023-03-23T16:34:16;2.20;;;1.60;;
840;SDS011;406;48.566;13.450;2023-03-23T16:36:42;2.90;;;1.73;;
840;SDS011;406;48.566;13.450;2023-03-23T16:39:10;2.63;;;1.90;;
840;SDS011;406;48.566;13.450;2023-03-23T16:41:37;2.57;;;1.97;;
840;SDS011;406;48.566;13.450;2023-03-23T16:44:03;2.60;;;1.50;;
840;SDS011;406;48.566;13.450;2023-03-23T16:46:30;2.30;;;1.83;;
840;SDS011;406;48.566;13.450;2023-03-23T16:48:57;2.70;;;1.60;;
840;SDS011;406;48.566;13.450;2023-03-23T16:51:24;2.93;;;1.87;;
840;SDS011;406;48.566;13.450;2023-03-23T16:53:50;2.17;;;1.67;;
840;SDS011;406;48.566;13.450;2023-03-23T16:56:17;2.70;;;1.80;;
840;SDS011;406;48.566;13.450;2023-03-23T16:58:43;3.57;;;2.03;;
840;SDS011;406;48.566;13.450;2023-03-23T17:01:10;2.47;;;2.20;;
840;SDS011;406;48.566;13.450;2023-03-23T17:03:37;3.60;;;1.93;;
840;SDS011;406;48.566;13.450;2023-03-23T17:06:07;4.97;;;2.30;;
840;SDS011;406;48.566;13.450;2023-03-23T17:08:34;3.40;;;1.70;;
840;SDS011;406;48.566;13.450;2023-03-23T17:11:00;2.40;;;2.20;;
840;SDS011;406;48.566;13.450;2023-03-23T17:13:27;2.50;;;1.83;;
840;SDS011;406;48.566;13.450;2023-03-23T17:15:54;4.10;;;3.40;;
840;SDS011;406;48.566;13.450;2023-03-23T17:18:22;3.40;;;1.70;;
840;SDS011;406;48.566;13.450;2023-03-23T17:20:51;2.40;;;1.80;;
840;SDS011;406;48.566;13.450;2023-03-23T17:23:18;2.97;;;1.50;;
840;SDS011;406;48.566;13.450;2023-03-23T17:25:47;7.10;;;2.33;;
840;SDS011;406;48.566;13.450;2023-03-23T17:28:14;6.80;;;1.97;;
840;SDS011;406;48.566;13.450;2023-03-23T17:30:41;4.73;;;2.23;;
840;SDS011;406;48.566;13.450;2023-03-23T17:33:09;2.63;;;2.03;;
840;SDS011;406;48.566;13.450;2023-03-23T17:35:36;3.50;;;1.90;;
840;SDS011;406;48.566;13.450;2023-03-23T17:38:03;1.80;;;1.57;;
840;SDS011;406;48.566;13.450;2023-03-23T17:40:29;2.70;;;1.83;;
840;SDS011;406;48.566;13.450;2023-03-23T17:42:56;3.07;;;2.20;;
840;SDS011;406;48.566;13.450;2023-03-23T17:45:22;3.20;;;2.13;;
840;SDS011;406;48.566;13.450;2023-03-23T17:47:49;2.80;;;2.30;;
840;SDS011;406;48.566;13.450;2023-03-23T17:50:15;2.87;;;1.80;;